createdAt,value
2023-02-25T00:02:04.437Z,100.00
2023-02-25T00:04:31.392Z,100.00
2023-02-25T00:06:57.902Z,100.00
2023-02-25T00:09:24.316Z,100.00
2023-02-25T00:11:50.813Z,100.00
2023-02-25T00:14:17.201Z,100.00
2023-02-25T00:16:43.649Z,100.00
2023-02-25T00:19:10.537Z,100.00
2023-02-25T00:21:38.057Z,100.00
2023-02-25T00:24:15.975Z,100.00
2023-02-25T00:26:43.653Z,100.00
2023-02-25T00:29:10.176Z,100.00
2023-02-25T00:31:36.682Z,100.00
2023-02-25T00:34:03.453Z,100.00
2023-02-25T00:36:32.132Z,100.00
2023-02-25T00:38:58.600Z,100.00
2023-02-25T00:41:28.197Z,100.00
2023-02-25T00:43:57.649Z,100.00
2023-02-25T00:46:24.700Z,100.00
2023-02-25T00:48:52.348Z,100.00
2023-02-25T00:51:21.821Z,100.00
2023-02-25T00:53:50.051Z,100.00
2023-02-25T00:56:17.849Z,100.00
2023-02-25T00:58:46.420Z,100.00
2023-02-25T01:01:23.823Z,100.00
2023-02-25T01:03:52.011Z,100.00
2023-02-25T01:06:18.857Z,100.00
2023-02-25T01:08:45.452Z,100.00
2023-02-25T01:11:27.460Z,100.00
2023-02-25T01:13:55.516Z,100.00
2023-02-25T01:16:24.887Z,100.00
2023-02-25T01:18:53.454Z,100.00
2023-02-25T01:21:42.727Z,100.00
2023-02-25T01:24:17.347Z,100.00
2023-02-25T01:26:45.529Z,100.00
2023-02-25T01:29:40.279Z,100.00
2023-02-25T01:32:11.952Z,100.00
2023-02-25T01:34:39.926Z,100.00
2023-02-25T01:37:08.150Z,100.00
2023-02-25T01:39:40.156Z,100.00
2023-02-25T01:42:14.369Z,100.00
2023-02-25T01:45:09.101Z,100.00
2023-02-25T01:47:39.264Z,100.00
2023-02-25T01:50:07.136Z,100.00
2023-02-25T01:52:33.830Z,100.00
2023-02-25T01:55:00.275Z,100.00
2023-02-25T01:57:28.052Z,100.00
2023-02-25T01:59:55.219Z,100.00
2023-02-25T02:02:26.089Z,100.00
2023-02-25T02:04:54.395Z,100.00
2023-02-25T02:07:23.269Z,100.00
2023-02-25T02:09:59.848Z,100.00
2023-02-25T02:12:31.352Z,100.00
2023-02-25T02:15:00.055Z,100.00
2023-02-25T02:17:37.903Z,100.00
2023-02-25T02:20:23.090Z,99.13
2023-02-25T02:23:04.931Z,99.59
2023-02-25T02:25:52.953Z,99.29
2023-02-25T02:28:50.657Z,99.35
2023-02-25T02:31:20.251Z,99.46
2023-02-25T02:34:16.651Z,99.21
2023-02-25T02:37:18.567Z,98.95
2023-02-25T02:40:14.262Z,99.17
2023-02-25T02:43:08.666Z,98.23
2023-02-25T02:45:55.530Z,97.67
2023-02-25T02:48:27.850Z,96.33
2023-02-25T02:50:59.899Z,95.98
2023-02-25T02:53:36.624Z,96.15
2023-02-25T02:56:07.291Z,96.67
2023-02-25T02:58:45.819Z,96.58
2023-02-25T03:01:16.046Z,97.15
2023-02-25T03:03:48.736Z,97.18
2023-02-25T03:06:19.855Z,97.32
2023-02-25T03:08:56.727Z,97.04
2023-02-25T03:11:23.556Z,97.08
2023-02-25T03:13:51.858Z,97.31
2023-02-25T03:16:31.870Z,97.25
2023-02-25T03:19:12.298Z,96.67
2023-02-25T03:21:43.663Z,96.69
2023-02-25T03:24:22.231Z,97.30
2023-02-25T03:26:51.555Z,96.63
2023-02-25T03:29:21.925Z,97.58
2023-02-25T03:31:56.927Z,97.67
2023-02-25T03:34:35.989Z,97.29
2023-02-25T03:37:09.279Z,97.75
2023-02-25T03:39:40.953Z,98.12
2023-02-25T03:42:14.074Z,97.52
2023-02-25T03:44:50.079Z,97.99
2023-02-25T03:47:19.367Z,98.90
2023-02-25T03:50:05.099Z,99.01
2023-02-25T03:52:32.302Z,98.82
2023-02-25T03:55:05.906Z,99.13
2023-02-25T03:57:41.211Z,98.88
2023-02-25T04:00:19.145Z,98.68
2023-02-25T04:02:46.888Z,98.48
2023-02-25T04:05:14.697Z,98.52
2023-02-25T04:07:41.397Z,98.50
2023-02-25T04:10:09.681Z,98.09
2023-02-25T04:12:36.111Z,98.71
2023-02-25T04:15:04.008Z,98.65
2023-02-25T04:17:30.523Z,98.74
2023-02-25T04:19:57.033Z,98.82
2023-02-25T04:22:24.120Z,98.66
2023-02-25T04:24:50.569Z,99.30
2023-02-25T04:27:17.324Z,98.77
2023-02-25T04:29:44.520Z,97.82
2023-02-25T04:32:12.001Z,97.08
2023-02-25T04:34:38.494Z,97.83
2023-02-25T04:37:05.277Z,98.03
2023-02-25T04:39:32.958Z,97.84
2023-02-25T04:41:59.372Z,97.64
2023-02-25T04:44:26.140Z,96.93
2023-02-25T04:46:52.602Z,96.99
2023-02-25T04:49:21.364Z,97.41
2023-02-25T04:51:49.463Z,98.00
2023-02-25T04:54:15.906Z,97.70
2023-02-25T04:56:42.291Z,97.93
2023-02-25T04:59:11.256Z,98.16
2023-02-25T05:01:38.569Z,98.36
2023-02-25T05:04:05.331Z,97.94
2023-02-25T05:06:32.005Z,97.63
2023-02-25T05:08:58.849Z,97.96
2023-02-25T05:11:27.358Z,97.25
2023-02-25T05:13:57.067Z,97.16
2023-02-25T05:16:24.144Z,96.55
2023-02-25T05:18:50.769Z,95.73
2023-02-25T05:21:20.999Z,95.68
2023-02-25T05:23:49.115Z,95.55
2023-02-25T05:26:18.115Z,95.25
2023-02-25T05:28:44.581Z,94.74
2023-02-25T05:31:12.608Z,94.44
2023-02-25T05:33:40.053Z,93.25
2023-02-25T05:36:08.203Z,93.33
2023-02-25T05:38:35.275Z,93.00
2023-02-25T05:41:05.909Z,92.89
2023-02-25T05:43:33.012Z,92.81
2023-02-25T05:46:03.136Z,92.53
2023-02-25T05:48:31.659Z,92.10
2023-02-25T05:51:12.997Z,90.90
2023-02-25T05:53:39.742Z,90.24
2023-02-25T05:56:08.320Z,89.89
2023-02-25T05:58:35.331Z,89.63
2023-02-25T06:01:16.859Z,90.08
2023-02-25T06:03:45.282Z,88.01
2023-02-25T06:06:14.755Z,86.93
2023-02-25T06:08:44.167Z,86.55
2023-02-25T06:11:14.231Z,85.87
2023-02-25T06:13:41.888Z,86.48
2023-02-25T06:16:08.433Z,85.71
2023-02-25T06:18:37.077Z,85.44
2023-02-25T06:21:09.770Z,86.19
2023-02-25T06:23:38.433Z,85.84
2023-02-25T06:26:07.763Z,85.01
2023-02-25T06:28:38.126Z,83.90
2023-02-25T06:31:08.758Z,83.00
2023-02-25T06:33:35.698Z,82.40
2023-02-25T06:36:02.649Z,82.60
2023-02-25T06:38:29.207Z,82.41
2023-02-25T06:40:55.730Z,82.45
2023-02-25T06:43:22.150Z,82.05
2023-02-25T06:45:48.641Z,81.41
2023-02-25T06:48:15.083Z,81.27
2023-02-25T06:50:41.885Z,80.33
2023-02-25T06:53:09.471Z,80.93
2023-02-25T06:55:39.169Z,81.07
2023-02-25T06:58:05.845Z,80.83
2023-02-25T07:00:33.208Z,80.59
2023-02-25T07:03:02.951Z,80.87
2023-02-25T07:05:29.461Z,80.51
2023-02-25T07:07:55.866Z,81.12
2023-02-25T07:10:22.285Z,80.51
2023-02-25T07:12:48.686Z,81.11
2023-02-25T07:15:15.191Z,81.00
2023-02-25T07:17:41.775Z,81.76
2023-02-25T07:20:08.897Z,82.26
2023-02-25T07:22:35.366Z,82.49
2023-02-25T07:25:02.230Z,83.99
2023-02-25T07:27:28.833Z,83.55
2023-02-25T07:29:55.755Z,83.77
2023-02-25T07:32:24.780Z,83.67
2023-02-25T07:34:51.392Z,84.09
2023-02-25T07:37:17.816Z,83.31
2023-02-25T07:39:45.723Z,83.03
2023-02-25T07:42:13.807Z,81.56
2023-02-25T07:44:40.297Z,81.26
2023-02-25T07:47:06.968Z,81.64
2023-02-25T07:49:33.531Z,80.91
2023-02-25T07:52:00.694Z,81.07
2023-02-25T07:54:27.206Z,81.20
2023-02-25T07:56:53.838Z,81.81
2023-02-25T07:59:20.319Z,82.30
2023-02-25T08:01:46.890Z,81.21
2023-02-25T08:04:13.419Z,81.34
2023-02-25T08:06:41.240Z,81.75
2023-02-25T08:09:11.044Z,82.27
2023-02-25T08:11:38.570Z,81.83
2023-02-25T08:14:06.006Z,81.37
2023-02-25T08:16:33.642Z,80.82
2023-02-25T08:19:00.287Z,79.80
2023-02-25T08:21:30.740Z,79.87
2023-02-25T08:23:57.215Z,80.32
2023-02-25T08:26:25.482Z,78.36
2023-02-25T08:28:51.917Z,76.97
2023-02-25T08:31:19.738Z,77.47
2023-02-25T08:33:49.541Z,76.70
2023-02-25T08:36:24.809Z,77.35
2023-02-25T08:38:51.630Z,76.59
2023-02-25T08:41:19.857Z,76.76
2023-02-25T08:43:54.658Z,73.97
2023-02-25T08:46:27.217Z,72.27
2023-02-25T08:48:54.658Z,73.33
2023-02-25T08:51:34.048Z,73.28
2023-02-25T08:54:06.602Z,73.25
2023-02-25T08:56:35.265Z,71.19
2023-02-25T08:59:02.005Z,72.02
2023-02-25T09:01:44.344Z,72.21
2023-02-25T09:04:22.862Z,72.54
2023-02-25T09:06:51.853Z,72.16
2023-02-25T09:09:20.140Z,71.80
2023-02-25T09:11:48.672Z,72.32
2023-02-25T09:14:15.200Z,72.87
2023-02-25T09:16:41.601Z,73.92
2023-02-25T09:19:08.175Z,73.01
2023-02-25T09:21:36.117Z,73.52
2023-02-25T09:24:03.068Z,73.85
2023-02-25T09:26:29.578Z,73.89
2023-02-25T09:28:56.002Z,73.45
2023-02-25T09:31:22.981Z,73.48
2023-02-25T09:33:49.706Z,74.32
2023-02-25T09:36:18.753Z,73.47
2023-02-25T09:38:46.867Z,73.83
2023-02-25T09:41:39.621Z,74.24
2023-02-25T09:44:15.441Z,74.62
2023-02-25T09:46:57.050Z,73.87
2023-02-25T09:49:48.081Z,73.55
2023-02-25T09:52:39.771Z,73.77
2023-02-25T09:55:08.156Z,73.66
2023-02-25T09:57:41.429Z,74.79
2023-02-25T10:00:18.591Z,72.68
2023-02-25T10:03:03.566Z,72.31
2023-02-25T10:05:52.816Z,72.97
2023-02-25T10:08:28.757Z,73.73
2023-02-25T10:11:13.672Z,74.22
2023-02-25T10:14:00.364Z,74.09
2023-02-25T10:16:54.752Z,72.48
2023-02-25T10:19:34.344Z,72.93
2023-02-25T10:22:26.014Z,72.79
2023-02-25T10:25:00.671Z,73.17
2023-02-25T10:27:41.397Z,72.93
2023-02-25T10:30:44.713Z,72.02
2023-02-25T10:33:18.325Z,72.42
2023-02-25T10:35:44.750Z,72.95
2023-02-25T10:38:12.707Z,72.99
2023-02-25T10:40:40.556Z,72.57
2023-02-25T10:43:20.115Z,72.79
2023-02-25T10:45:49.570Z,71.43
2023-02-25T10:48:23.716Z,71.98
2023-02-25T10:51:05.778Z,71.82
2023-02-25T10:53:34.367Z,70.49
2023-02-25T10:56:02.823Z,69.98
2023-02-25T10:58:35.488Z,69.06
2023-02-25T11:01:23.427Z,67.80
2023-02-25T11:04:17.752Z,66.08
2023-02-25T11:06:45.050Z,66.00
2023-02-25T11:09:35.427Z,65.67
2023-02-25T11:12:07.590Z,65.25
2023-02-25T11:14:39.669Z,65.30
2023-02-25T11:17:14.511Z,65.91
2023-02-25T11:19:47.031Z,65.15
2023-02-25T11:22:20.216Z,65.49
2023-02-25T11:24:59.421Z,65.96
2023-02-25T11:27:30.726Z,65.31
2023-02-25T11:30:04.971Z,65.69
2023-02-25T11:32:33.532Z,65.98
2023-02-25T11:35:11.296Z,66.50
2023-02-25T11:37:45.396Z,66.93
2023-02-25T11:40:33.786Z,66.43
2023-02-25T11:43:06.122Z,67.08
2023-02-25T11:45:35.502Z,67.13
2023-02-25T11:48:05.479Z,65.39
2023-02-25T11:50:51.584Z,65.70
2023-02-25T11:53:27.180Z,65.09
2023-02-25T11:56:18.315Z,64.57
2023-02-25T11:58:52.159Z,63.60
2023-02-25T12:01:42.295Z,63.24
2023-02-25T12:04:27.017Z,64.25
2023-02-25T12:07:42.991Z,62.96
2023-02-25T12:10:51.628Z,62.63
2023-02-25T12:13:46.671Z,62.01
2023-02-25T12:16:43.928Z,62.15
2023-02-25T12:19:44.579Z,60.18
2023-02-25T12:22:27.170Z,60.62
2023-02-25T12:25:14.982Z,60.58
2023-02-25T12:27:44.456Z,60.97
2023-02-25T12:30:33.785Z,60.75
2023-02-25T12:33:14.688Z,60.68
2023-02-25T12:35:50.115Z,60.41
2023-02-25T12:39:03.162Z,62.21
2023-02-25T12:41:38.616Z,60.91
2023-02-25T12:44:33.442Z,60.52
2023-02-25T12:47:18.894Z,61.43
2023-02-25T12:50:01.467Z,60.18
2023-02-25T12:52:57.805Z,60.55
2023-02-25T12:55:31.136Z,60.07
2023-02-25T12:58:16.529Z,60.85
2023-02-25T13:00:57.250Z,58.90
2023-02-25T13:03:41.498Z,58.73
2023-02-25T13:06:39.107Z,59.15
2023-02-25T13:09:23.664Z,59.04
2023-02-25T13:12:17.753Z,58.85
2023-02-25T13:14:57.483Z,59.04
2023-02-25T13:17:56.980Z,58.56
2023-02-25T13:20:36.659Z,58.78
2023-02-25T13:23:29.953Z,58.62
2023-02-25T13:26:08.605Z,58.77
2023-02-25T13:29:02.341Z,59.05
2023-02-25T13:31:51.433Z,59.81
2023-02-25T13:34:30.014Z,59.19
2023-02-25T13:37:10.322Z,58.28
2023-02-25T13:39:50.065Z,58.63
2023-02-25T13:42:46.034Z,58.68
2023-02-25T13:45:33.577Z,58.93
2023-02-25T13:48:23.072Z,57.83
2023-02-25T13:51:26.246Z,57.30
2023-02-25T13:54:46.080Z,53.85
2023-02-25T13:57:55.009Z,53.17
2023-02-25T14:00:37.832Z,52.27
2023-02-25T14:03:47.961Z,51.33
2023-02-25T14:06:25.894Z,52.90
2023-02-25T14:09:19.894Z,53.87
2023-02-25T14:11:57.746Z,53.65
2023-02-25T14:14:55.386Z,53.01
2023-02-25T14:17:37.997Z,52.63
2023-02-25T14:20:20.958Z,52.38
2023-02-25T14:22:56.883Z,52.45
2023-02-25T14:25:50.604Z,52.18
2023-02-25T14:28:51.567Z,51.78
2023-02-25T14:31:25.805Z,51.87
2023-02-25T14:34:09.950Z,51.95
2023-02-25T14:36:49.841Z,49.90
2023-02-25T14:39:21.729Z,50.65
2023-02-25T14:42:05.811Z,50.94
2023-02-25T14:44:53.537Z,51.35
2023-02-25T14:47:34.002Z,50.51
2023-02-25T14:50:10.404Z,51.56
2023-02-25T14:53:16.373Z,52.47
2023-02-25T14:56:01.945Z,54.04
2023-02-25T14:59:11.997Z,53.43
2023-02-25T15:02:00.346Z,52.52
2023-02-25T15:04:52.378Z,52.51
2023-02-25T15:07:40.746Z,51.76
2023-02-25T15:10:29.841Z,51.58
2023-02-25T15:12:59.285Z,51.68
2023-02-25T15:15:35.092Z,51.37
2023-02-25T15:18:28.153Z,51.55
2023-02-25T15:20:55.803Z,52.27
2023-02-25T15:23:42.637Z,51.92
2023-02-25T15:26:23.654Z,53.50
2023-02-25T15:28:52.264Z,53.94
2023-02-25T15:31:29.860Z,53.54
2023-02-25T15:34:28.403Z,52.47
2023-02-25T15:37:18.561Z,52.31
2023-02-25T15:39:44.973Z,51.89
2023-02-25T15:42:12.108Z,52.23
2023-02-25T15:44:41.119Z,52.78
2023-02-25T15:47:22.430Z,53.36
2023-02-25T15:49:49.998Z,53.28
2023-02-25T15:52:57.123Z,54.46
2023-02-25T15:55:44.031Z,53.66
2023-02-25T15:58:25.792Z,52.91
2023-02-25T16:00:53.804Z,52.89
2023-02-25T16:03:34.768Z,53.34
2023-02-25T16:06:23.164Z,54.67
2023-02-25T16:09:03.392Z,53.76
2023-02-25T16:11:38.150Z,53.19
2023-02-25T16:14:12.280Z,53.68
2023-02-25T16:16:49.226Z,53.17
2023-02-25T16:19:18.903Z,54.03
2023-02-25T16:21:48.372Z,52.84
2023-02-25T16:24:16.044Z,53.83
2023-02-25T16:27:00.161Z,53.73
2023-02-25T16:29:48.446Z,53.73
2023-02-25T16:32:36.236Z,53.28
2023-02-25T16:35:13.726Z,53.44
2023-02-25T16:37:58.389Z,53.41
2023-02-25T16:40:29.778Z,54.01
2023-02-25T16:42:58.701Z,54.48
2023-02-25T16:45:32.021Z,54.30
2023-02-25T16:48:06.977Z,53.91
2023-02-25T16:50:36.117Z,54.53
2023-02-25T16:53:04.058Z,54.89
2023-02-25T16:55:39.189Z,55.36
2023-02-25T16:58:20.376Z,55.27
2023-02-25T17:00:53.179Z,55.16
2023-02-25T17:03:21.324Z,55.86
2023-02-25T17:06:14.872Z,55.50
2023-02-25T17:08:46.365Z,55.63
2023-02-25T17:11:17.027Z,56.06
2023-02-25T17:13:45.333Z,56.54
2023-02-25T17:16:41.037Z,57.05
2023-02-25T17:19:09.921Z,57.24
2023-02-25T17:21:39.318Z,57.38
2023-02-25T17:24:11.719Z,57.47
2023-02-25T17:26:43.804Z,58.08
2023-02-25T17:29:12.679Z,58.77
2023-02-25T17:31:52.112Z,59.04
2023-02-25T17:34:27.187Z,58.34
2023-02-25T17:36:55.620Z,58.57
2023-02-25T17:39:22.583Z,59.13
2023-02-25T17:41:49.720Z,59.59
2023-02-25T17:44:44.625Z,59.68
2023-02-25T17:47:18.939Z,59.72
2023-02-25T17:49:45.576Z,59.82
2023-02-25T17:52:22.718Z,60.52
2023-02-25T17:54:58.413Z,60.86
2023-02-25T17:57:28.393Z,61.60
2023-02-25T18:00:00.381Z,61.71
2023-02-25T18:02:36.839Z,62.89
2023-02-25T18:05:12.818Z,63.30
2023-02-25T18:07:43.775Z,63.17
2023-02-25T18:10:25.737Z,63.87
2023-02-25T18:12:54.277Z,64.58
2023-02-25T18:15:24.089Z,65.34
2023-02-25T18:17:54.038Z,64.86
2023-02-25T18:20:32.265Z,64.98
2023-02-25T18:23:28.227Z,65.73
2023-02-25T18:26:27.129Z,66.28
2023-02-25T18:28:57.584Z,66.64
2023-02-25T18:31:24.100Z,66.46
2023-02-25T18:33:52.068Z,66.97
2023-02-25T18:36:27.581Z,66.85
2023-02-25T18:39:04.914Z,66.31
2023-02-25T18:41:33.706Z,67.56
2023-02-25T18:44:01.480Z,67.32
2023-02-25T18:46:28.787Z,67.73
2023-02-25T18:48:55.292Z,68.48
2023-02-25T18:51:21.693Z,68.78
2023-02-25T18:53:48.176Z,68.67
2023-02-25T18:56:17.964Z,68.95
2023-02-25T18:58:45.291Z,69.05
2023-02-25T19:01:23.962Z,69.29
2023-02-25T19:03:51.339Z,69.63
2023-02-25T19:06:18.397Z,69.67
2023-02-25T19:08:45.125Z,69.82
2023-02-25T19:11:22.547Z,70.06
2023-02-25T19:13:49.212Z,70.04
2023-02-25T19:16:16.920Z,69.70
2023-02-25T19:18:43.438Z,69.52
2023-02-25T19:21:14.298Z,70.14
2023-02-25T19:23:40.818Z,69.97
2023-02-25T19:26:07.961Z,69.85
2023-02-25T19:28:34.448Z,70.04
2023-02-25T19:31:02.051Z,69.80
2023-02-25T19:33:29.141Z,70.38
2023-02-25T19:35:56.088Z,70.30
2023-02-25T19:38:22.516Z,70.83
2023-02-25T19:40:49.423Z,70.53
2023-02-25T19:43:17.406Z,71.24
2023-02-25T19:45:44.004Z,71.19
2023-02-25T19:48:10.851Z,70.70
2023-02-25T19:50:40.624Z,70.51
2023-02-25T19:53:07.068Z,70.34
2023-02-25T19:55:34.015Z,70.87
2023-02-25T19:58:00.533Z,71.02
2023-02-25T20:00:27.084Z,72.49
2023-02-25T20:02:54.549Z,72.82
2023-02-25T20:05:22.517Z,72.73
2023-02-25T20:07:49.514Z,73.26
2023-02-25T20:10:16.302Z,73.57
2023-02-25T20:12:44.993Z,74.42
2023-02-25T20:15:13.623Z,74.55
2023-02-25T20:17:42.044Z,75.03
2023-02-25T20:20:10.941Z,76.24
2023-02-25T20:22:38.946Z,76.04
2023-02-25T20:25:06.927Z,76.51
2023-02-25T20:27:36.937Z,77.35
2023-02-25T20:30:06.779Z,77.30
2023-02-25T20:32:33.841Z,77.87
2023-02-25T20:35:00.572Z,78.23
2023-02-25T20:37:33.813Z,78.15
2023-02-25T20:40:00.527Z,78.86
2023-02-25T20:42:30.471Z,79.35
2023-02-25T20:44:59.080Z,79.48
2023-02-25T20:47:31.180Z,79.52
2023-02-25T20:49:58.529Z,79.85
2023-02-25T20:52:29.237Z,80.08
2023-02-25T20:54:56.277Z,79.64
2023-02-25T20:57:24.626Z,79.84
2023-02-25T20:59:51.420Z,79.88
2023-02-25T21:02:18.235Z,79.69
2023-02-25T21:04:45.319Z,80.04
2023-02-25T21:07:12.071Z,80.66
2023-02-25T21:09:38.900Z,80.31
2023-02-25T21:12:06.299Z,80.36
2023-02-25T21:14:32.827Z,80.25
2023-02-25T21:17:00.114Z,80.84
2023-02-25T21:19:28.156Z,80.84
2023-02-25T21:21:55.341Z,81.54
2023-02-25T21:24:21.922Z,80.89
2023-02-25T21:26:48.310Z,81.45
2023-02-25T21:29:14.947Z,81.79
2023-02-25T21:31:42.007Z,81.26
2023-02-25T21:34:11.621Z,80.94
2023-02-25T21:36:38.858Z,81.47
2023-02-25T21:39:06.922Z,81.35
2023-02-25T21:41:33.809Z,81.25
2023-02-25T21:44:00.357Z,81.30
2023-02-25T21:46:28.648Z,81.58
2023-02-25T21:48:56.190Z,81.55
2023-02-25T21:51:24.963Z,81.76
2023-02-25T21:54:00.702Z,81.46
2023-02-25T21:56:28.617Z,81.23
2023-02-25T21:58:57.633Z,81.82
2023-02-25T22:01:29.894Z,82.19
2023-02-25T22:03:56.514Z,80.68
2023-02-25T22:06:24.520Z,81.64
2023-02-25T22:08:52.298Z,81.69
2023-02-25T22:11:22.371Z,81.91
2023-02-25T22:13:50.526Z,81.71
2023-02-25T22:16:17.261Z,81.04
2023-02-25T22:18:44.437Z,81.30
2023-02-25T22:21:25.803Z,81.56
2023-02-25T22:23:54.714Z,81.20
2023-02-25T22:26:25.088Z,81.86
2023-02-25T22:28:56.464Z,81.69
2023-02-25T22:31:24.191Z,82.01
2023-02-25T22:33:51.128Z,81.63
2023-02-25T22:36:19.195Z,82.41
2023-02-25T22:38:47.698Z,82.55
2023-02-25T22:41:17.379Z,82.37
2023-02-25T22:43:44.210Z,82.76
2023-02-25T22:46:16.578Z,82.04
2023-02-25T22:48:45.770Z,81.55
2023-02-25T22:51:13.786Z,82.68
2023-02-25T22:53:41.013Z,82.81
2023-02-25T22:56:09.732Z,82.76
2023-02-25T22:58:38.708Z,82.39
2023-02-25T23:01:05.447Z,82.70
2023-02-25T23:03:31.900Z,82.55
2023-02-25T23:05:58.776Z,83.15
2023-02-25T23:08:25.268Z,83.23
2023-02-25T23:10:51.757Z,83.50
2023-02-25T23:13:46.665Z,83.09
2023-02-25T23:16:25.437Z,82.76
2023-02-25T23:18:52.140Z,83.46
2023-02-25T23:21:20.198Z,83.33
2023-02-25T23:23:48.582Z,82.99
2023-02-25T23:26:17.286Z,83.27
2023-02-25T23:28:44.073Z,83.50
2023-02-25T23:31:21.378Z,83.82
2023-02-25T23:33:48.367Z,83.33
2023-02-25T23:36:15.683Z,83.50
2023-02-25T23:38:42.113Z,83.43
2023-02-25T23:41:08.539Z,83.74
2023-02-25T23:43:35.293Z,84.17
2023-02-25T23:46:05.621Z,84.22
2023-02-25T23:48:32.637Z,84.03
2023-02-25T23:51:06.786Z,84.45
2023-02-25T23:53:33.929Z,84.98
2023-02-25T23:56:06.341Z,85.10
2023-02-25T23:58:32.919Z,85.32
